Time;durP1;ratioP1;P1;durP2;ratioP2;P2;SDS_P1;SDS_P2;PMS_P1;PMS_P2;Temp;Humidity;BMP_temperature;BMP_pressure;BME280_temperature;BME280_humidity;BME280_pressure;Samples;Min_cycle;Max_cycle;Signal;HPM_P1;HPM_P2
2022/12/03 00:01:11;;;;;;;5.13;4.73;;;;;;;;;;4990453;28;20421;-67
2022/12/03 00:03:37;;;;;;;7.43;6.07;;;;;;;;;;4991237;28;20443;-67
2022/12/03 00:06:03;;;;;;;7.17;5.00;;;;;;;;;;4991781;28;20428;-67
2022/12/03 00:08:29;;;;;;;6.40;5.80;;;;;;;;;;4991886;28;20452;-68
2022/12/03 00:10:55;;;;;;;6.50;5.90;;;;;;;;;;4991465;28;20433;-67
2022/12/03 00:13:21;;;;;;;5.70;5.30;;;;;;;;;;4990740;28;20476;-67
2022/12/03 00:15:47;;;;;;;7.83;4.37;;;;;;;;;;4991759;28;20781;-67
2022/12/03 00:18:13;;;;;;;5.20;4.80;;;;;;;;;;4991733;28;20401;-67
2022/12/03 00:20:39;;;;;;;5.70;5.30;;;;;;;;;;4991305;28;20440;-67
2022/12/03 00:23:05;;;;;;;8.30;6.00;;;;;;;;;;4991102;28;20427;-67
2022/12/03 00:25:31;;;;;;;7.03;6.27;;;;;;;;;;4991561;28;20976;-67
2022/12/03 00:27:57;;;;;;;7.50;5.13;;;;;;;;;;4991537;28;20437;-67
2022/12/03 00:30:23;;;;;;;5.97;5.47;;;;;;;;;;4990859;28;20429;-67
2022/12/03 00:32:49;;;;;;;5.90;5.40;;;;;;;;;;4990161;28;21068;-67
2022/12/03 00:35:15;;;;;;;6.23;5.73;;;;;;;;;;4991584;28;20567;-67
2022/12/03 00:37:41;;;;;;;5.63;5.13;;;;;;;;;;4991223;28;20508;-67
2022/12/03 00:40:07;;;;;;;7.23;6.53;;;;;;;;;;4990951;28;20949;-67
2022/12/03 00:42:33;;;;;;;6.57;6.00;;;;;;;;;;4990320;28;20441;-67
2022/12/03 00:44:59;;;;;;;10.33;6.90;;;;;;;;;;4990439;28;20495;-67
2022/12/03 00:47:25;;;;;;;6.40;5.40;;;;;;;;;;4990606;28;20521;-67
2022/12/03 00:49:51;;;;;;;6.30;5.67;;;;;;;;;;4991241;28;20506;-67
2022/12/03 00:52:17;;;;;;;6.00;5.37;;;;;;;;;;4991118;28;20434;-67
2022/12/03 00:54:43;;;;;;;7.63;5.80;;;;;;;;;;4990275;28;20485;-67
2022/12/03 00:57:09;;;;;;;6.00;5.43;;;;;;;;;;4991001;28;20940;-67
2022/12/03 00:59:35;;;;;;;5.83;5.37;;;;;;;;;;4990802;28;20484;-67
2022/12/03 01:02:01;;;;;;;6.77;5.50;;;;;;;;;;4990004;28;20417;-67
2022/12/03 01:04:27;;;;;;;6.60;6.00;;;;;;;;;;4990735;28;20431;-67
2022/12/03 01:06:53;;;;;;;6.53;5.97;;;;;;;;;;4990518;28;20465;-67
2022/12/03 01:09:18;;;;;;;6.93;6.20;;;;;;;;;;4990180;28;20941;-66
2022/12/03 01:11:44;;;;;;;5.80;5.30;;;;;;;;;;4990552;28;20515;-67
2022/12/03 01:14:12;;;;;;;6.17;5.27;;;;;;;;;;4990257;28;20500;-67
2022/12/03 01:16:38;;;;;;;5.23;4.93;;;;;;;;;;4989222;28;20429;-67
2022/12/03 01:19:05;;;;;;;6.17;5.57;;;;;;;;;;4989673;28;20507;-67
2022/12/03 01:21:31;;;;;;;6.30;5.73;;;;;;;;;;4990661;28;20858;-67
2022/12/03 01:23:57;;;;;;;6.30;5.70;;;;;;;;;;5005783;28;20437;-67
2022/12/03 01:26:24;;;;;;;5.47;4.97;;;;;;;;;;4990254;28;20483;-67
2022/12/03 01:28:50;;;;;;;7.77;5.17;;;;;;;;;;4990143;28;20795;-67
2022/12/03 01:34:01;;;;;;;7.03;6.33;;;;;;;;;;4990012;28;21018;-67
2022/12/03 01:36:27;;;;;;;5.77;5.37;;;;;;;;;;4990424;28;20504;-67
2022/12/03 01:38:53;;;;;;;5.70;5.30;;;;;;;;;;4989981;28;21011;-66
2022/12/03 01:41:20;;;;;;;8.07;7.37;;;;;;;;;;4990063;28;20528;-67
2022/12/03 01:43:46;;;;;;;6.20;5.63;;;;;;;;;;4989917;28;20441;-67
2022/12/03 01:46:13;;;;;;;6.27;5.77;;;;;;;;;;4989989;28;20425;-67
2022/12/03 01:48:40;;;;;;;6.27;5.67;;;;;;;;;;4990244;28;20473;-67
2022/12/03 01:51:06;;;;;;;6.40;5.90;;;;;;;;;;4989800;28;20447;-67
2022/12/03 01:53:32;;;;;;;6.37;5.80;;;;;;;;;;5004578;28;20491;-67
2022/12/03 01:55:58;;;;;;;6.20;5.63;;;;;;;;;;4990411;28;20429;-67
2022/12/03 01:58:26;;;;;;;6.60;6.00;;;;;;;;;;4990951;28;20433;-67
2022/12/03 02:00:52;;;;;;;6.03;5.63;;;;;;;;;;4988975;28;20491;-67
2022/12/03 02:03:20;;;;;;;4.93;4.60;;;;;;;;;;4990105;28;20453;-68
2022/12/03 02:05:47;;;;;;;6.13;5.40;;;;;;;;;;4990497;28;20417;-67
2022/12/03 02:08:30;;;;;;;6.50;5.90;;;;;;;;;;4990550;28;20506;-68
2022/12/03 02:10:58;;;;;;;5.73;5.30;;;;;;;;;;4989831;28;20830;-67
2022/12/03 02:13:24;;;;;;;5.93;5.53;;;;;;;;;;4989714;28;20468;-67
2022/12/03 02:15:50;;;;;;;7.27;6.10;;;;;;;;;;4989870;28;20441;-68
2022/12/03 02:18:16;;;;;;;4.70;4.50;;;;;;;;;;4990395;28;20510;-67
2022/12/03 02:20:46;;;;;;;6.00;5.40;;;;;;;;;;4992115;28;20437;-67
2022/12/03 02:23:17;;;;;;;6.33;4.60;;;;;;;;;;4994067;28;20433;-67
2022/12/03 02:25:43;;;;;;;6.93;4.80;;;;;;;;;;4994227;28;20478;-67
2022/12/03 02:28:09;;;;;;;5.57;5.17;;;;;;;;;;4993905;28;20433;-68
2022/12/03 02:30:35;;;;;;;6.00;5.40;;;;;;;;;;4992174;28;20445;-67
2022/12/03 02:33:03;;;;;;;5.90;5.60;;;;;;;;;;4993344;28;20468;-67
2022/12/03 02:35:31;;;;;;;6.37;5.87;;;;;;;;;;4993170;28;20813;-67
2022/12/03 02:38:15;;;;;;;5.00;4.60;;;;;;;;;;4993979;28;20928;-67
2022/12/03 02:40:42;;;;;;;6.27;5.77;;;;;;;;;;4993306;28;20763;-67
2022/12/03 02:43:09;;;;;;;5.63;5.27;;;;;;;;;;5008536;28;21067;-68
2022/12/03 02:45:40;;;;;;;5.03;4.53;;;;;;;;;;4992810;28;20494;-67
2022/12/03 02:48:08;;;;;;;6.10;5.70;;;;;;;;;;4992681;28;20469;-67
2022/12/03 02:50:35;;;;;;;8.47;7.60;;;;;;;;;;5008190;28;20448;-67
2022/12/03 02:53:04;;;;;;;8.97;5.70;;;;;;;;;;4993561;28;20457;-67
2022/12/03 02:55:32;;;;;;;6.10;5.50;;;;;;;;;;4993490;28;20436;-67
2022/12/03 02:57:58;;;;;;;6.20;4.10;;;;;;;;;;4993181;28;20432;-67
2022/12/03 03:00:25;;;;;;;4.97;4.73;;;;;;;;;;4992575;28;20927;-67
2022/12/03 03:02:51;;;;;;;4.63;4.33;;;;;;;;;;4992947;28;20421;-67
2022/12/03 03:05:18;;;;;;;12.47;6.23;;;;;;;;;;4992892;28;20513;-66
2022/12/03 03:07:44;;;;;;;5.10;4.70;;;;;;;;;;4993357;28;20425;-67
2022/12/03 03:10:12;;;;;;;6.90;5.83;;;;;;;;;;4992723;28;20435;-67
2022/12/03 03:12:38;;;;;;;6.80;6.20;;;;;;;;;;4992585;28;20516;-68
2022/12/03 03:15:04;;;;;;;6.23;5.60;;;;;;;;;;4992727;28;20445;-67
2022/12/03 03:17:30;;;;;;;5.17;4.67;;;;;;;;;;4992706;28;20421;-67
2022/12/03 03:19:56;;;;;;;6.53;5.83;;;;;;;;;;4993146;28;20436;-67
2022/12/03 03:22:31;;;;;;;6.93;5.00;;;;;;;;;;4992640;28;20422;-67
2022/12/03 03:24:56;;;;;;;6.20;5.10;;;;;;;;;;4992429;28;20992;-67
2022/12/03 03:27:22;;;;;;;5.07;4.60;;;;;;;;;;4991598;28;20532;-67
2022/12/03 03:29:48;;;;;;;7.63;5.67;;;;;;;;;;4992751;28;20817;-67
2022/12/03 03:32:14;;;;;;;5.37;4.87;;;;;;;;;;4990809;28;20535;-67
2022/12/03 03:34:40;;;;;;;5.67;5.20;;;;;;;;;;4992284;28;20488;-67
2022/12/03 03:37:06;;;;;;;4.70;4.40;;;;;;;;;;4992350;28;20439;-67
2022/12/03 03:39:32;;;;;;;5.63;5.17;;;;;;;;;;5007472;28;20444;-67
2022/12/03 03:41:58;;;;;;;5.17;4.87;;;;;;;;;;4992003;28;20436;-67
2022/12/03 03:44:24;;;;;;;5.73;5.30;;;;;;;;;;4992221;28;20449;-67
2022/12/03 03:46:50;;;;;;;5.03;4.70;;;;;;;;;;4991863;28;20515;-67
2022/12/03 03:49:16;;;;;;;5.37;4.97;;;;;;;;;;4992056;28;20445;-67
2022/12/03 03:51:43;;;;;;;5.60;5.10;;;;;;;;;;4991696;28;20789;-67
2022/12/03 03:54:09;;;;;;;6.40;5.97;;;;;;;;;;4992020;28;20484;-67
2022/12/03 03:56:35;;;;;;;5.33;4.90;;;;;;;;;;4992046;28;20426;-67
2022/12/03 03:59:01;;;;;;;5.70;5.33;;;;;;;;;;4991957;28;20448;-67
2022/12/03 04:01:28;;;;;;;5.43;4.93;;;;;;;;;;4991332;28;20483;-67
2022/12/03 04:03:54;;;;;;;5.30;4.90;;;;;;;;;;4991799;28;20432;-67
2022/12/03 04:06:20;;;;;;;5.17;4.83;;;;;;;;;;4991766;28;20504;-67
2022/12/03 04:08:46;;;;;;;5.70;5.30;;;;;;;;;;4991764;28;20433;-67
2022/12/03 04:13:57;;;;;;;5.90;5.50;;;;;;;;;;4991978;28;21019;-67
2022/12/03 04:16:23;;;;;;;5.87;5.37;;;;;;;;;;4991037;28;20445;-67
2022/12/03 04:18:49;;;;;;;5.67;5.27;;;;;;;;;;4991942;28;20933;-67
2022/12/03 04:24:02;;;;;;;5.80;4.97;;;;;;;;;;4991341;28;20428;-67
2022/12/03 04:29:13;;;;;;;5.87;5.57;;;;;;;;;;4992020;28;20424;-67
2022/12/03 04:37:08;;;;;;;4.53;4.17;;;;;;;;;;4991672;28;20987;-68
2022/12/03 04:39:34;;;;;;;5.97;5.47;;;;;;;;;;4991090;28;20461;-67
2022/12/03 04:42:00;;;;;;;4.63;4.33;;;;;;;;;;4991124;28;20426;-68
2022/12/03 04:44:32;;;;;;;7.03;5.20;;;;;;;;;;4990753;28;20797;-66
2022/12/03 04:46:58;;;;;;;5.10;4.70;;;;;;;;;;4990994;28;20467;-67
2022/12/03 04:49:25;;;;;;;6.80;5.40;;;;;;;;;;4991072;28;20433;-67
2022/12/03 04:51:51;;;;;;;5.23;4.90;;;;;;;;;;4991013;28;20516;-66
2022/12/03 04:54:17;;;;;;;6.17;5.70;;;;;;;;;;4990667;28;20560;-67
2022/12/03 04:56:43;;;;;;;5.37;4.87;;;;;;;;;;4990636;28;20469;-67
2022/12/03 04:59:09;;;;;;;4.57;4.37;;;;;;;;;;4990609;28;20452;-67
2022/12/03 05:01:35;;;;;;;4.73;4.43;;;;;;;;;;4989990;28;20972;-68
2022/12/03 05:04:01;;;;;;;6.07;5.57;;;;;;;;;;4990751;28;20433;-67
2022/12/03 05:06:27;;;;;;;5.33;5.03;;;;;;;;;;4990184;28;20437;-67
2022/12/03 05:08:53;;;;;;;6.37;5.57;;;;;;;;;;4990455;28;20992;-67
2022/12/03 05:11:19;;;;;;;5.57;5.00;;;;;;;;;;4990465;28;20936;-67
2022/12/03 05:13:45;;;;;;;4.70;4.50;;;;;;;;;;4990551;28;20476;-67
2022/12/03 05:16:11;;;;;;;5.40;5.00;;;;;;;;;;4990593;28;20852;-67
2022/12/03 05:18:37;;;;;;;5.40;5.00;;;;;;;;;;4990271;28;20463;-67
2022/12/03 05:21:03;;;;;;;5.87;5.33;;;;;;;;;;4990247;28;20440;-67
2022/12/03 05:23:29;;;;;;;5.10;4.80;;;;;;;;;;4990535;28;20429;-67
2022/12/03 05:25:55;;;;;;;5.47;5.07;;;;;;;;;;4989530;28;20947;-66
2022/12/03 05:28:23;;;;;;;5.33;4.97;;;;;;;;;;4989907;28;20441;-66
2022/12/03 05:30:49;;;;;;;5.17;4.77;;;;;;;;;;4989470;28;20425;-67
2022/12/03 05:33:15;;;;;;;13.10;9.30;;;;;;;;;;4990308;28;20479;-67
2022/12/03 05:35:41;;;;;;;8.80;7.47;;;;;;;;;;4989929;28;20437;-67
2022/12/03 05:38:06;;;;;;;8.07;7.13;;;;;;;;;;5005381;28;20437;-67
2022/12/03 05:40:32;;;;;;;6.83;6.33;;;;;;;;;;4989797;28;20441;-67
2022/12/03 05:43:00;;;;;;;5.83;5.43;;;;;;;;;;4990168;28;20448;-67
2022/12/03 05:45:30;;;;;;;6.90;6.10;;;;;;;;;;4989904;28;20488;-66
2022/12/03 05:47:57;;;;;;;4.87;4.57;;;;;;;;;;4989905;28;20476;-67
2022/12/03 05:50:24;;;;;;;6.33;5.83;;;;;;;;;;4989919;28;20437;-67
2022/12/03 05:52:50;;;;;;;4.67;4.37;;;;;;;;;;4989540;28;20437;-67
2022/12/03 05:55:16;;;;;;;5.80;5.30;;;;;;;;;;4991697;28;20443;-67
2022/12/03 05:57:42;;;;;;;5.83;5.27;;;;;;;;;;4993526;28;20444;-67
2022/12/03 06:00:13;;;;;;;5.70;5.30;;;;;;;;;;4993628;28;20432;-66
2022/12/03 06:02:39;;;;;;;5.93;5.60;;;;;;;;;;4993841;28;20968;-67
2022/12/03 06:05:06;;;;;;;4.87;4.50;;;;;;;;;;4993287;28;20433;-67
2022/12/03 06:07:32;;;;;;;4.87;4.50;;;;;;;;;;4994023;28;20433;-67
2022/12/03 06:09:58;;;;;;;5.33;5.07;;;;;;;;;;4994381;28;20572;-68
2022/12/03 06:12:24;;;;;;;5.50;5.10;;;;;;;;;;4992867;28;20448;-67
2022/12/03 06:14:51;;;;;;;5.13;4.77;;;;;;;;;;4993467;28;20571;-67
2022/12/03 06:17:17;;;;;;;5.10;4.77;;;;;;;;;;4993446;28;20433;-67
2022/12/03 06:19:43;;;;;;;7.53;5.50;;;;;;;;;;4993883;28;20980;-67
2022/12/03 06:22:09;;;;;;;6.07;5.67;;;;;;;;;;4992839;28;20428;-67
2022/12/03 06:24:35;;;;;;;5.70;5.30;;;;;;;;;;4993115;28;20511;-67
2022/12/03 06:27:01;;;;;;;4.17;3.97;;;;;;;;;;4993698;28;20524;-67
2022/12/03 06:29:27;;;;;;;5.67;5.27;;;;;;;;;;4994037;28;20436;-67
2022/12/03 06:31:53;;;;;;;4.73;4.53;;;;;;;;;;4993082;28;20460;-67
2022/12/03 06:34:19;;;;;;;4.80;4.60;;;;;;;;;;4993079;28;20480;-67
2022/12/03 06:36:45;;;;;;;5.23;4.93;;;;;;;;;;4993374;28;20428;-67
2022/12/03 06:39:11;;;;;;;6.87;6.37;;;;;;;;;;4993565;28;20996;-67
2022/12/03 06:41:37;;;;;;;5.47;5.10;;;;;;;;;;5008187;28;20421;-67
2022/12/03 06:44:05;;;;;;;5.10;4.80;;;;;;;;;;4993146;28;20837;-67
2022/12/03 06:46:31;;;;;;;6.27;5.77;;;;;;;;;;4992495;28;20483;-67
2022/12/03 06:48:57;;;;;;;6.33;5.30;;;;;;;;;;4993564;28;20476;-67
2022/12/03 06:51:23;;;;;;;5.53;5.13;;;;;;;;;;5007476;28;20502;-67
2022/12/03 06:53:48;;;;;;;5.57;5.23;;;;;;;;;;4993168;28;20492;-67
2022/12/03 06:56:14;;;;;;;5.50;5.20;;;;;;;;;;4993318;28;20432;-67
2022/12/03 06:58:40;;;;;;;5.87;5.30;;;;;;;;;;4992585;28;20440;-68
2022/12/03 07:01:06;;;;;;;5.80;5.40;;;;;;;;;;4991233;28;21017;-67
2022/12/03 07:03:32;;;;;;;5.40;4.93;;;;;;;;;;4992850;28;20770;-67
2022/12/03 07:05:58;;;;;;;6.67;5.93;;;;;;;;;;4992629;28;20536;-67
2022/12/03 07:08:24;;;;;;;5.23;4.83;;;;;;;;;;4992841;28;20441;-67
2022/12/03 07:10:50;;;;;;;5.60;5.20;;;;;;;;;;4991923;28;20437;-67
2022/12/03 07:13:16;;;;;;;5.53;5.10;;;;;;;;;;4992210;28;20476;-67
2022/12/03 07:15:42;;;;;;;5.63;5.23;;;;;;;;;;4992218;28;20433;-67
2022/12/03 07:18:08;;;;;;;5.80;5.40;;;;;;;;;;4992789;28;20428;-67
2022/12/03 07:20:34;;;;;;;5.97;5.40;;;;;;;;;;4992156;28;20445;-67
2022/12/03 07:23:00;;;;;;;5.90;5.40;;;;;;;;;;4992858;28;20779;-67
2022/12/03 07:25:26;;;;;;;5.93;5.17;;;;;;;;;;4992397;28;20441;-67
2022/12/03 07:27:52;;;;;;;6.10;5.70;;;;;;;;;;4992669;28;20501;-66
2022/12/03 07:30:18;;;;;;;6.87;5.30;;;;;;;;;;4992111;28;20437;-66
2022/12/03 07:32:44;;;;;;;6.90;6.30;;;;;;;;;;4992471;28;20425;-67
2022/12/03 07:35:10;;;;;;;8.43;5.70;;;;;;;;;;4991644;28;20451;-66
2022/12/03 07:37:36;;;;;;;5.43;5.13;;;;;;;;;;4990203;28;20487;-66
2022/12/03 07:40:03;;;;;;;6.10;5.70;;;;;;;;;;4991379;28;20552;-67
2022/12/03 07:42:30;;;;;;;6.23;5.73;;;;;;;;;;4990005;28;20769;-67
2022/12/03 07:44:56;;;;;;;4.93;4.73;;;;;;;;;;4988375;28;20437;-66
2022/12/03 07:47:22;;;;;;;6.97;6.27;;;;;;;;;;4991399;28;20533;-66
2022/12/03 07:49:48;;;;;;;8.23;5.50;;;;;;;;;;4989719;28;20515;-66
2022/12/03 07:52:14;;;;;;;5.87;5.47;;;;;;;;;;4991127;28;20429;-66
2022/12/03 07:54:40;;;;;;;7.47;5.97;;;;;;;;;;4990953;28;20516;-67
2022/12/03 07:57:06;;;;;;;6.23;5.57;;;;;;;;;;4990277;28;20465;-67
2022/12/03 07:59:32;;;;;;;5.13;4.80;;;;;;;;;;4987070;28;20491;-67
2022/12/03 08:01:58;;;;;;;6.50;6.00;;;;;;;;;;4988009;28;21002;-67
2022/12/03 08:04:24;;;;;;;5.47;5.17;;;;;;;;;;4988479;28;21503;-67
2022/12/03 08:06:50;;;;;;;6.20;5.60;;;;;;;;;;5003875;28;21871;-67
2022/12/03 08:09:16;;;;;;;6.33;5.90;;;;;;;;;;4990182;28;20933;-67
2022/12/03 08:11:43;;;;;;;4.80;4.50;;;;;;;;;;4990840;28;20856;-67
2022/12/03 08:14:13;;;;;;;6.33;5.87;;;;;;;;;;4990786;28;20496;-68
2022/12/03 08:16:40;;;;;;;6.17;5.77;;;;;;;;;;4988818;28;20437;-67
2022/12/03 08:19:14;;;;;;;6.97;6.27;;;;;;;;;;4990841;28;20538;-67
2022/12/03 08:21:40;;;;;;;5.70;5.20;;;;;;;;;;4978631;28;20452;-67
2022/12/03 08:24:14;;;;;;;6.20;5.67;;;;;;;;;;4988364;28;20463;-67
2022/12/03 08:26:40;;;;;;;6.33;4.97;;;;;;;;;;4990062;28;20455;-68
2022/12/03 08:29:10;;;;;;;5.70;5.23;;;;;;;;;;5004525;28;20436;-67
2022/12/03 08:31:36;;;;;;;4.83;4.53;;;;;;;;;;5002459;28;20508;-67
2022/12/03 08:34:15;;;;;;;6.07;5.57;;;;;;;;;;4990013;28;20488;-67
2022/12/03 08:36:41;;;;;;;5.93;5.53;;;;;;;;;;4990326;28;20437;-67
2022/12/03 08:39:22;;;;;;;7.90;7.30;;;;;;;;;;4990360;28;20440;-69
2022/12/03 08:44:40;;;;;;;6.60;6.00;;;;;;;;;;4990342;28;20564;-67
2022/12/03 08:47:05;;;;;;;7.80;6.80;;;;;;;;;;4990962;28;20479;-67
2022/12/03 08:49:32;;;;;;;6.20;5.70;;;;;;;;;;5006026;28;20425;-67
2022/12/03 08:51:59;;;;;;;6.17;5.67;;;;;;;;;;4990400;28;20410;-67
2022/12/03 08:54:26;;;;;;;11.20;6.50;;;;;;;;;;4990664;28;21067;-67
2022/12/03 08:56:52;;;;;;;7.33;6.73;;;;;;;;;;4991141;28;20440;-67
2022/12/03 08:59:28;;;;;;;6.30;5.80;;;;;;;;;;4991113;28;20429;-66
2022/12/03 09:01:54;;;;;;;6.97;5.90;;;;;;;;;;4990325;28;20437;-67
2022/12/03 09:04:22;;;;;;;6.23;5.70;;;;;;;;;;4990139;28;20444;-67
2022/12/03 09:06:48;;;;;;;6.67;6.10;;;;;;;;;;4991176;28;20794;-67
2022/12/03 09:09:14;;;;;;;12.83;10.23;;;;;;;;;;4990792;28;20441;-67
2022/12/03 09:11:42;;;;;;;7.30;6.70;;;;;;;;;;4990646;28;20456;-67
2022/12/03 09:14:07;;;;;;;9.70;8.07;;;;;;;;;;4989934;28;20496;-67
2022/12/03 09:16:33;;;;;;;10.47;9.37;;;;;;;;;;4989799;28;20853;-69
2022/12/03 09:18:59;;;;;;;8.77;7.90;;;;;;;;;;4989389;28;20488;-67
2022/12/03 09:21:25;;;;;;;10.50;8.07;;;;;;;;;;4989230;28;20495;-67
2022/12/03 09:23:51;;;;;;;10.37;8.87;;;;;;;;;;4989946;28;20449;-67
2022/12/03 09:26:17;;;;;;;12.40;8.57;;;;;;;;;;4989713;28;20437;-67
2022/12/03 09:28:45;;;;;;;23.67;18.63;;;;;;;;;;4990863;28;20961;-67
2022/12/03 09:31:11;;;;;;;19.83;12.27;;;;;;;;;;4988664;28;20449;-67
2022/12/03 09:33:37;;;;;;;9.70;8.40;;;;;;;;;;4989102;28;20844;-67
2022/12/03 09:36:03;;;;;;;8.97;6.87;;;;;;;;;;4988607;28;20972;-67
2022/12/03 09:38:29;;;;;;;7.10;6.50;;;;;;;;;;4989191;28;21011;-68
2022/12/03 09:40:55;;;;;;;6.50;6.03;;;;;;;;;;5003813;28;20460;-67
2022/12/03 09:43:21;;;;;;;8.87;7.60;;;;;;;;;;5005135;28;20510;-67
2022/12/03 09:45:48;;;;;;;7.67;6.87;;;;;;;;;;4989657;28;20777;-66
2022/12/03 09:48:18;;;;;;;7.87;7.10;;;;;;;;;;4989723;28;20876;-67
2022/12/03 09:50:44;;;;;;;11.00;7.43;;;;;;;;;;4989209;28;20441;-67
2022/12/03 09:53:15;;;;;;;15.17;11.10;;;;;;;;;;4989700;28;20566;-67
2022/12/03 09:55:42;;;;;;;13.30;9.87;;;;;;;;;;4990360;28;20449;-67
2022/12/03 09:58:11;;;;;;;18.60;13.83;;;;;;;;;;4989423;28;20429;-68
2022/12/03 10:00:37;;;;;;;15.27;11.80;;;;;;;;;;4988794;28;20448;-67
2022/12/03 10:03:06;;;;;;;13.40;11.93;;;;;;;;;;4989703;28;20421;-67
2022/12/03 10:05:33;;;;;;;10.73;9.80;;;;;;;;;;4988471;28;20480;-67
2022/12/03 10:08:07;;;;;;;10.40;9.23;;;;;;;;;;5003853;28;20437;-67
2022/12/03 10:10:34;;;;;;;11.27;7.70;;;;;;;;;;4989674;28;20976;-67
2022/12/03 10:13:00;;;;;;;8.97;7.80;;;;;;;;;;4989796;28;20437;-67
2022/12/03 10:15:26;;;;;;;7.90;7.20;;;;;;;;;;4989162;28;20552;-67
2022/12/03 10:17:54;;;;;;;9.30;7.70;;;;;;;;;;4989718;28;20444;-67
2022/12/03 10:20:21;;;;;;;11.07;8.83;;;;;;;;;;5003979;28;20436;-67
2022/12/03 10:22:47;;;;;;;9.07;8.27;;;;;;;;;;5004894;28;20528;-67
2022/12/03 10:25:22;;;;;;;9.83;7.97;;;;;;;;;;4989714;28;20520;-66
2022/12/03 10:27:59;;;;;;;12.07;9.93;;;;;;;;;;4989408;28;20430;-67
2022/12/03 10:30:27;;;;;;;16.27;10.10;;;;;;;;;;4989197;28;20425;-67
2022/12/03 10:32:53;;;;;;;9.10;8.20;;;;;;;;;;4989968;28;20429;-67
2022/12/03 10:35:21;;;;;;;9.33;8.33;;;;;;;;;;4989552;28;20441;-67
2022/12/03 10:38:04;;;;;;;11.53;9.70;;;;;;;;;;4989848;28;20436;-67
2022/12/03 10:40:31;;;;;;;9.93;8.50;;;;;;;;;;5000210;28;20436;-66
2022/12/03 10:43:14;;;;;;;26.70;15.27;;;;;;;;;;5006774;28;20457;-67
2022/12/03 10:45:40;;;;;;;19.43;11.53;;;;;;;;;;4991083;28;20809;-67
2022/12/03 10:48:16;;;;;;;25.33;17.07;;;;;;;;;;4990881;28;20835;-67
2022/12/03 10:50:47;;;;;;;15.63;11.73;;;;;;;;;;4988665;28;20424;-67
2022/12/03 10:53:13;;;;;;;9.17;8.40;;;;;;;;;;4992156;28;20472;-67
2022/12/03 10:55:40;;;;;;;16.30;9.63;;;;;;;;;;4992775;28;20437;-67
2022/12/03 10:58:08;;;;;;;10.90;9.20;;;;;;;;;;4992304;28;20980;-67
2022/12/03 11:00:34;;;;;;;18.43;9.33;;;;;;;;;;4991486;28;20953;-67
2022/12/03 11:03:01;;;;;;;16.73;11.73;;;;;;;;;;4992711;28;20443;-67
2022/12/03 11:05:27;;;;;;;16.30;10.73;;;;;;;;;;4991971;28;20445;-66
2022/12/03 11:07:53;;;;;;;14.87;10.53;;;;;;;;;;4991265;28;20437;-67
2022/12/03 11:10:20;;;;;;;10.97;7.80;;;;;;;;;;4991546;28;20460;-67
2022/12/03 11:13:04;;;;;;;14.93;11.73;;;;;;;;;;5007429;28;20456;-67
2022/12/03 11:15:43;;;;;;;13.03;10.10;;;;;;;;;;4990246;28;21070;-67
2022/12/03 11:18:09;;;;;;;11.57;8.67;;;;;;;;;;4990958;28;20451;-67
2022/12/03 11:21:00;;;;;;;12.10;9.90;;;;;;;;;;4991656;28;20441;-67
2022/12/03 11:23:44;;;;;;;11.13;9.80;;;;;;;;;;5006639;28;20441;-67
2022/12/03 11:26:10;;;;;;;13.50;10.33;;;;;;;;;;4991544;28;20542;-67
2022/12/03 11:28:37;;;;;;;17.03;10.60;;;;;;;;;;4992053;28;20529;-68
2022/12/03 11:31:08;;;;;;;13.07;8.90;;;;;;;;;;4990664;28;20928;-67
2022/12/03 11:33:39;;;;;;;9.50;7.73;;;;;;;;;;4992041;28;20523;-66
2022/12/03 11:36:05;;;;;;;12.97;9.97;;;;;;;;;;4992171;28;20440;-66
2022/12/03 11:38:40;;;;;;;10.37;9.27;;;;;;;;;;4991520;28;20429;-67
2022/12/03 11:41:10;;;;;;;7.57;6.87;;;;;;;;;;4990961;28;20464;-67
2022/12/03 11:43:52;;;;;;;12.90;8.00;;;;;;;;;;5006051;28;20433;-67
2022/12/03 11:46:19;;;;;;;12.13;8.53;;;;;;;;;;5005177;28;20440;-67
2022/12/03 11:48:45;;;;;;;10.23;9.13;;;;;;;;;;5005125;28;20648;-66
2022/12/03 11:51:15;;;;;;;14.43;10.37;;;;;;;;;;4991540;28;20428;-66
2022/12/03 11:53:42;;;;;;;8.43;7.60;;;;;;;;;;4989255;28;20486;-67
2022/12/03 11:56:13;;;;;;;9.70;8.30;;;;;;;;;;4991146;28;20449;-67
2022/12/03 11:58:41;;;;;;;9.63;8.30;;;;;;;;;;4989085;28;21023;-66
2022/12/03 12:01:07;;;;;;;11.40;10.13;;;;;;;;;;4988973;28;20449;-67
2022/12/03 12:03:35;;;;;;;12.67;8.57;;;;;;;;;;4991408;28;20429;-66
2022/12/03 12:06:02;;;;;;;9.90;8.50;;;;;;;;;;4991071;28;20460;-66
2022/12/03 12:08:28;;;;;;;12.63;9.17;;;;;;;;;;4990590;28;20956;-67
2022/12/03 12:10:54;;;;;;;10.73;8.57;;;;;;;;;;4991114;28;20453;-67
2022/12/03 12:13:26;;;;;;;9.57;8.57;;;;;;;;;;4991140;28;20480;-67
2022/12/03 12:15:52;;;;;;;9.10;8.03;;;;;;;;;;4990876;28;20436;-67
2022/12/03 12:18:39;;;;;;;8.93;8.00;;;;;;;;;;4990295;28;20464;-67
2022/12/03 12:21:41;;;;;;;11.47;9.10;;;;;;;;;;4958408;28;20551;-67
2022/12/03 12:24:26;;;;;;;24.23;17.63;;;;;;;;;;4991299;28;20460;-67
2022/12/03 12:26:52;;;;;;;12.50;9.70;;;;;;;;;;4990897;28;20434;-67
2022/12/03 12:29:18;;;;;;;32.03;15.70;;;;;;;;;;4991115;28;20441;-67
2022/12/03 12:31:44;;;;;;;43.90;20.63;;;;;;;;;;4990780;28;20507;-67
2022/12/03 12:34:12;;;;;;;36.73;17.70;;;;;;;;;;4990963;28;20492;-67
2022/12/03 12:36:39;;;;;;;13.40;9.23;;;;;;;;;;4991484;28;20425;-66
2022/12/03 12:39:11;;;;;;;12.83;9.60;;;;;;;;;;4991417;28;21064;-67
2022/12/03 12:41:37;;;;;;;12.80;10.30;;;;;;;;;;4990490;28;20442;-67
2022/12/03 12:44:08;;;;;;;17.63;9.40;;;;;;;;;;4990535;28;20424;-67
2022/12/03 12:46:34;;;;;;;20.97;10.67;;;;;;;;;;4990827;28;20432;-66
2022/12/03 12:49:00;;;;;;;9.83;8.37;;;;;;;;;;4991156;28;20591;-68
2022/12/03 12:51:26;;;;;;;12.70;8.90;;;;;;;;;;4990124;28;20953;-69
2022/12/03 12:53:52;;;;;;;12.23;9.30;;;;;;;;;;5005353;28;20468;-67
2022/12/03 12:56:26;;;;;;;9.50;8.60;;;;;;;;;;4990868;28;20514;-66
2022/12/03 12:58:53;;;;;;;10.83;9.37;;;;;;;;;;5005958;28;20432;-67
2022/12/03 13:01:25;;;;;;;10.03;8.87;;;;;;;;;;5005179;28;20515;-66
2022/12/03 13:03:51;;;;;;;15.00;10.30;;;;;;;;;;4989330;28;20443;-67
2022/12/03 13:06:19;;;;;;;13.43;12.00;;;;;;;;;;4990815;28;20448;-67
2022/12/03 13:08:46;;;;;;;15.10;11.90;;;;;;;;;;4991370;28;20421;-67
2022/12/03 13:11:33;;;;;;;18.70;11.97;;;;;;;;;;4990326;28;20536;-66
2022/12/03 13:14:00;;;;;;;10.57;8.90;;;;;;;;;;4989278;28;20480;-66
2022/12/03 13:16:31;;;;;;;11.20;8.20;;;;;;;;;;4973367;28;20816;-67
2022/12/03 13:18:58;;;;;;;13.17;10.10;;;;;;;;;;4990074;28;20539;-66
2022/12/03 13:21:40;;;;;;;9.33;8.17;;;;;;;;;;4990266;28;20573;-67
2022/12/03 13:24:25;;;;;;;18.10;7.47;;;;;;;;;;5005410;28;20441;-66
2022/12/03 13:26:51;;;;;;;10.87;9.40;;;;;;;;;;4990536;28;20432;-67
2022/12/03 13:29:18;;;;;;;11.23;8.17;;;;;;;;;;4990238;28;20459;-67
2022/12/03 13:31:50;;;;;;;10.13;8.87;;;;;;;;;;5005048;28;20794;-67
2022/12/03 13:34:21;;;;;;;9.50;8.20;;;;;;;;;;4989992;28;20485;-66
2022/12/03 13:36:47;;;;;;;9.50;8.43;;;;;;;;;;4990653;28;20428;-66
2022/12/03 13:39:27;;;;;;;12.97;10.80;;;;;;;;;;4990591;28;20473;-67
2022/12/03 13:44:45;;;;;;;11.83;9.03;;;;;;;;;;4989011;28;20494;-67
2022/12/03 13:47:15;;;;;;;12.07;8.97;;;;;;;;;;4989897;28;20536;-67
2022/12/03 13:49:44;;;;;;;10.33;9.23;;;;;;;;;;4990171;28;20918;-67
2022/12/03 13:52:14;;;;;;;11.97;9.80;;;;;;;;;;5004373;28;20448;-67
2022/12/03 13:54:40;;;;;;;9.73;8.80;;;;;;;;;;4989922;28;20484;-67
2022/12/03 13:57:06;;;;;;;11.10;10.00;;;;;;;;;;4989995;28;20432;-67
2022/12/03 13:59:32;;;;;;;9.53;8.27;;;;;;;;;;4988227;28;20938;-67
2022/12/03 14:01:58;;;;;;;13.23;9.60;;;;;;;;;;4989514;28;20410;-67
2022/12/03 14:04:24;;;;;;;16.30;12.00;;;;;;;;;;4989336;28;20425;-67
2022/12/03 14:06:50;;;;;;;16.50;11.47;;;;;;;;;;4990160;28;20437;-67
2022/12/03 14:09:19;;;;;;;13.07;11.23;;;;;;;;;;4990092;28;22327;-68
2022/12/03 14:14:29;;;;;;;14.40;10.50;;;;;;;;;;4989569;28;20905;-67
2022/12/03 14:16:55;;;;;;;13.90;9.83;;;;;;;;;;4992749;28;20461;-67
2022/12/03 14:19:21;;;;;;;18.30;10.20;;;;;;;;;;4993995;28;20801;-68
2022/12/03 14:21:47;;;;;;;10.87;9.47;;;;;;;;;;4993790;28;20474;-67
2022/12/03 14:24:13;;;;;;;10.57;9.23;;;;;;;;;;4993439;28;20425;-67
2022/12/03 14:26:39;;;;;;;10.90;9.47;;;;;;;;;;4994211;28;20428;-66
2022/12/03 14:29:05;;;;;;;10.47;7.93;;;;;;;;;;4993268;28;20436;-67
2022/12/03 14:31:31;;;;;;;10.50;9.40;;;;;;;;;;4993521;28;20461;-67
2022/12/03 14:33:57;;;;;;;10.83;9.23;;;;;;;;;;4993105;28;20488;-68
2022/12/03 14:36:23;;;;;;;14.57;8.93;;;;;;;;;;4993836;28;20425;-67
2022/12/03 14:38:49;;;;;;;12.00;9.20;;;;;;;;;;4993999;28;20900;-67
2022/12/03 14:44:00;;;;;;;9.57;8.43;;;;;;;;;;4993026;28;20952;-68
2022/12/03 14:46:26;;;;;;;11.90;10.47;;;;;;;;;;4993204;28;20424;-67
2022/12/03 14:48:52;;;;;;;12.30;9.80;;;;;;;;;;4993735;28;20825;-67
2022/12/03 14:51:18;;;;;;;11.33;8.97;;;;;;;;;;4992299;28;20431;-67
2022/12/03 14:53:44;;;;;;;11.83;8.50;;;;;;;;;;4992437;28;20483;-67
2022/12/03 14:56:10;;;;;;;10.57;9.13;;;;;;;;;;4993041;28;20456;-67
2022/12/03 14:58:36;;;;;;;12.53;10.23;;;;;;;;;;4990077;28;20456;-67
2022/12/03 15:01:02;;;;;;;12.93;9.53;;;;;;;;;;4992074;28;20453;-67
2022/12/03 15:03:28;;;;;;;11.70;8.53;;;;;;;;;;4992643;28;20841;-67
2022/12/03 15:05:54;;;;;;;14.90;9.80;;;;;;;;;;4990502;28;20425;-67
2022/12/03 15:08:20;;;;;;;12.50;8.90;;;;;;;;;;4991709;28;20429;-67